Time;durP1;ratioP1;P1;durP2;ratioP2;P2;SDS_P1;SDS_P2;PMS_P1;PMS_P2;Temp;Humidity;BMP_temperature;BMP_pressure;BME280_temperature;BME280_humidity;BME280_pressure;Samples;Min_cycle;Max_cycle;Signal;HPM_P1;HPM_P2
2023/02/19 00:01:47;;;;;;;7.60;4.80;;;;;;;3.81;91.39;100131.34;104291;1277;98415;-76
2023/02/19 00:04:32;;;;;;;17.10;4.80;;;;;;;3.83;91.27;100138.75;104334;1278;101466;-76
2023/02/19 00:07:17;;;;;;;7.60;3.50;;;;;;;3.83;91.00;100143.80;104074;1276;99283;-76
2023/02/19 00:10:02;;;;;;;8.90;4.70;;;;;;;3.83;90.80;100144.19;104336;1279;98503;-76
2023/02/19 00:12:46;;;;;;;10.50;5.60;;;;;;;3.84;90.53;100150.29;104330;1279;97987;-75
2023/02/19 00:15:32;;;;;;;12.40;6.40;;;;;;;3.84;90.49;100146.68;104217;1278;98506;-76
2023/02/19 00:18:16;;;;;;;12.30;4.40;;;;;;;3.84;90.65;100142.45;104324;1279;102792;-76
2023/02/19 00:21:01;;;;;;;6.40;3.90;;;;;;;3.83;90.43;100142.73;104221;1278;99210;-76
2023/02/19 00:23:51;;;;;;;7.20;3.90;;;;;;;3.82;90.17;100141.77;105690;1278;97889;-76
2023/02/19 00:26:37;;;;;;;9.60;4.70;;;;;;;3.82;90.25;100140.59;104727;1276;99112;-76
2023/02/19 00:29:23;;;;;;;6.10;4.50;;;;;;;3.82;90.38;100137.20;104302;1277;97891;-77
2023/02/19 00:32:08;;;;;;;9.80;4.10;;;;;;;3.84;90.56;100130.66;104330;1277;101376;-78
2023/02/19 00:34:52;;;;;;;11.40;4.40;;;;;;;3.86;90.57;100129.75;104233;1277;99335;-77
2023/02/19 00:37:37;;;;;;;7.50;4.50;;;;;;;3.89;90.74;100126.09;104276;1279;97887;-76
2023/02/19 00:40:24;;;;;;;10.50;4.40;;;;;;;3.91;90.83;100124.41;104322;1277;98046;-77
2023/02/19 00:43:11;;;;;;;7.80;4.60;;;;;;;3.93;90.68;100124.33;104271;1280;98056;-77
2023/02/19 00:45:55;;;;;;;12.70;4.10;;;;;;;3.92;90.39;100130.89;104416;1276;101397;-76
2023/02/19 00:48:41;;;;;;;12.20;4.10;;;;;;;3.90;90.27;100130.77;104302;1277;100380;-76
2023/02/19 00:51:29;;;;;;;11.80;3.80;;;;;;;3.89;90.00;100127.46;104323;1276;97917;-77
2023/02/19 00:54:14;;;;;;;10.90;3.80;;;;;;;3.88;89.67;100126.71;104055;1277;97992;-75
2023/02/19 00:56:59;;;;;;;7.30;3.00;;;;;;;3.86;89.34;100130.05;104261;1277;98492;-76
2023/02/19 00:59:43;;;;;;;11.10;3.80;;;;;;;3.86;89.18;100126.23;104375;1277;101426;-77
2023/02/19 01:02:28;;;;;;;10.00;4.00;;;;;;;3.84;89.21;100120.56;104293;1277;99072;-77
2023/02/19 01:05:13;;;;;;;7.60;4.00;;;;;;;3.83;89.06;100118.73;104119;1277;98819;-77
2023/02/19 01:07:58;;;;;;;6.70;3.20;;;;;;;3.82;88.93;100117.08;104270;1274;98571;-77
2023/02/19 01:10:43;;;;;;;8.00;3.60;;;;;;;3.83;89.04;100113.48;104286;1279;97926;-76
2023/02/19 01:13:29;;;;;;;6.90;3.10;;;;;;;3.82;88.97;100115.61;104306;1278;101517;-77
2023/02/19 01:16:14;;;;;;;9.30;3.20;;;;;;;3.83;88.88;100116.95;104371;1279;99171;-76
2023/02/19 01:18:59;;;;;;;10.00;4.70;;;;;;;3.84;89.14;100110.31;104050;1277;98981;-76
2023/02/19 01:21:44;;;;;;;9.00;4.00;;;;;;;3.84;89.06;100112.98;104316;1275;98168;-77
2023/02/19 01:24:29;;;;;;;16.40;4.30;;;;;;;3.84;89.15;100118.95;104450;1279;98535;-79
2023/02/19 01:27:13;;;;;;;9.30;3.50;;;;;;;3.84;89.32;100120.59;104525;1278;102373;-76
2023/02/19 01:29:58;;;;;;;10.50;4.20;;;;;;;3.83;89.37;100121.02;103821;1280;100600;-76
2023/02/19 01:32:43;;;;;;;16.00;6.30;;;;;;;3.83;89.59;100120.48;104208;1279;97996;-76
2023/02/19 01:35:27;;;;;;;10.10;4.70;;;;;;;3.83;89.66;100121.75;104060;1279;98083;-76
2023/02/19 01:38:12;;;;;;;12.10;4.60;;;;;;;3.82;89.81;100117.84;104300;1274;97992;-76
2023/02/19 01:41:00;;;;;;;11.70;4.70;;;;;;;3.76;89.97;100118.00;104245;1279;101442;-77
2023/02/19 01:44:03;;;;;;;8.10;3.60;;;;;;;3.72;90.24;100117.23;104046;1274;99262;-77
2023/02/19 01:46:50;;;;;;;11.30;4.20;;;;;;;3.67;90.45;100114.91;104316;1275;98020;-76
2023/02/19 01:49:49;;;;;;;7.00;4.00;;;;;;;3.64;90.77;100112.60;105742;1276;95955;-77
2023/02/19 01:52:35;;;;;;;11.40;4.10;;;;;;;3.61;90.90;100113.91;104282;1274;98433;-77
2023/02/19 01:55:21;;;;;;;9.90;3.90;;;;;;;3.59;90.97;100111.91;104220;1279;102585;-77
2023/02/19 01:58:07;;;;;;;9.10;4.20;;;;;;;3.56;91.07;100110.20;104301;1274;100414;-77
2023/02/19 02:00:55;;;;;;;11.50;3.80;;;;;;;3.54;91.01;100112.33;103923;1274;97925;-76
2023/02/19 02:03:44;;;;;;;5.20;3.60;;;;;;;3.51;91.18;100107.96;104026;1280;98123;-76
2023/02/19 02:06:35;;;;;;;9.10;5.80;;;;;;;3.49;91.28;100104.64;104098;1274;98426;-75
2023/02/19 02:12:28;;;;;;;6.30;3.70;;;;;;;3.43;91.26;100102.23;104357;1279;100354;-77
2023/02/19 02:15:15;;;;;;;10.60;3.90;;;;;;;3.39;91.18;100105.05;104209;1279;97902;-77
2023/02/19 02:18:10;;;;;;;7.10;3.20;;;;;;;3.37;91.41;100112.45;104282;1279;98122;-76
2023/02/19 02:21:28;;;;;;;12.10;3.80;;;;;;;3.36;91.63;100111.41;104225;1277;98529;-77
2023/02/19 02:24:49;;;;;;;7.10;3.80;;;;;;;3.33;91.64;100112.39;105104;1276;101337;-78
2023/02/19 02:28:00;;;;;;;11.20;4.10;;;;;;;3.29;91.62;100115.76;103444;1283;99301;-77
2023/02/19 02:30:54;;;;;;;10.50;4.10;;;;;;;3.26;91.66;100118.27;104041;1276;99014;-76
2023/02/19 02:34:03;;;;;;;6.70;3.60;;;;;;;3.22;91.75;100115.65;104363;1277;98748;-76
2023/02/19 02:36:54;;;;;;;9.20;4.30;;;;;;;3.20;91.78;100117.42;104450;1280;98100;-76
2023/02/19 02:39:40;;;;;;;9.00;3.40;;;;;;;3.19;91.78;100119.08;104244;1279;102662;-76
2023/02/19 02:42:26;;;;;;;8.60;3.90;;;;;;;3.17;91.76;100111.70;104383;1274;100462;-77
2023/02/19 02:45:35;;;;;;;8.20;3.70;;;;;;;3.14;91.63;100106.83;104036;1276;99055;-76
2023/02/19 02:48:28;;;;;;;10.90;3.20;;;;;;;3.10;91.65;100099.32;103849;1282;98014;-75
2023/02/19 02:51:24;;;;;;;7.10;2.80;;;;;;;3.07;91.51;100093.77;104439;1279;98020;-75
2023/02/19 02:57:35;;;;;;;12.20;4.00;;;;;;;3.06;91.73;100088.26;104016;1280;111708;-77
2023/02/19 03:00:24;;;;;;;9.40;3.40;;;;;;;3.05;91.63;100088.75;104327;1276;98644;-78
2023/02/19 03:03:09;;;;;;;7.90;3.20;;;;;;;3.03;91.65;100087.31;104128;1280;98075;-77
2023/02/19 03:06:01;;;;;;;14.80;3.60;;;;;;;3.02;91.70;100087.57;104455;1279;99674;-77
2023/02/19 03:09:29;;;;;;;6.60;3.00;;;;;;;3.03;91.82;100089.48;104175;1279;101460;-79
2023/02/19 03:21:41;;;;;;;5.90;3.40;;;;;;;2.98;91.33;100097.88;104331;1274;97969;-78
2023/02/19 03:27:37;;;;;;;11.40;6.40;;;;;;;2.96;91.44;100095.05;104341;1274;99356;-77
2023/02/19 03:30:30;;;;;;;8.70;4.70;;;;;;;2.95;91.31;100092.18;104212;1279;97924;-77
2023/02/19 03:33:20;;;;;;;10.40;5.20;;;;;;;2.93;91.20;100088.33;104240;1280;98044;-77
2023/02/19 03:36:09;;;;;;;9.20;5.20;;;;;;;2.90;91.13;100087.02;104480;1276;98150;-77
2023/02/19 03:39:05;;;;;;;9.00;4.20;;;;;;;2.90;91.28;100085.67;103935;1280;102223;-77
2023/02/19 03:42:04;;;;;;;17.20;5.30;;;;;;;2.89;91.26;100082.88;104326;1274;100086;-76
2023/02/19 03:45:08;;;;;;;8.00;3.30;;;;;;;2.87;91.08;100079.22;104754;1279;98489;-77
2023/02/19 03:48:01;;;;;;;6.70;3.30;;;;;;;2.87;91.20;100080.66;104136;1280;98068;-78
2023/02/19 03:51:00;;;;;;;9.30;3.90;;;;;;;2.86;91.04;100074.21;104377;1279;98127;-78
2023/02/19 03:54:11;;;;;;;9.70;2.90;;;;;;;2.85;90.98;100073.05;104483;1279;102219;-77
2023/02/19 03:57:10;;;;;;;11.70;3.20;;;;;;;2.84;91.02;100068.10;104463;1276;99159;-77
2023/02/19 04:00:10;;;;;;;14.20;3.50;;;;;;;2.81;91.08;100074.33;103997;1280;98085;-77
2023/02/19 04:03:27;;;;;;;8.00;3.20;;;;;;;2.79;90.96;100073.17;104227;1277;98026;-78
2023/02/19 04:06:18;;;;;;;10.20;4.60;;;;;;;2.79;91.24;100069.27;104258;1279;97793;-78
2023/02/19 04:09:07;;;;;;;8.00;3.10;;;;;;;2.78;91.15;100064.94;104372;1277;101397;-77
2023/02/19 04:11:54;;;;;;;8.10;4.10;;;;;;;2.78;91.22;100066.56;104482;1277;100694;-77
2023/02/19 04:14:45;;;;;;;11.50;4.30;;;;;;;2.77;91.28;100060.02;104330;1276;98295;-75
2023/02/19 04:17:44;;;;;;;9.10;4.40;;;;;;;2.75;91.29;100053.98;104375;1277;98115;-76
2023/02/19 04:20:33;;;;;;;13.70;4.60;;;;;;;2.76;91.53;100056.46;104542;1277;98753;-77
2023/02/19 04:23:23;;;;;;;9.00;3.80;;;;;;;2.77;91.55;100055.41;104334;1276;101431;-77
2023/02/19 04:26:10;;;;;;;7.60;4.00;;;;;;;2.75;91.46;100052.61;104301;1279;100873;-77
2023/02/19 04:28:55;;;;;;;9.90;4.40;;;;;;;2.75;91.67;100052.94;104197;1279;98029;-76
2023/02/19 04:31:40;;;;;;;12.60;4.20;;;;;;;2.75;91.72;100053.77;104308;1277;98113;-76
2023/02/19 04:34:24;;;;;;;13.60;5.10;;;;;;;2.75;91.64;100053.44;104244;1279;98504;-77
2023/02/19 04:37:09;;;;;;;16.40;5.80;;;;;;;2.75;91.74;100052.77;104305;1279;101388;-76
2023/02/19 04:39:54;;;;;;;10.60;5.90;;;;;;;2.75;91.72;100057.64;104398;1277;99261;-77
2023/02/19 04:42:39;;;;;;;14.20;6.00;;;;;;;2.74;91.70;100061.64;104288;1279;98852;-77
2023/02/19 04:45:24;;;;;;;16.10;5.60;;;;;;;2.74;91.83;100067.30;104390;1278;98857;-77
2023/02/19 04:48:09;;;;;;;12.40;6.20;;;;;;;2.75;91.94;100064.22;104347;1279;98420;-76
2023/02/19 04:50:54;;;;;;;17.30;6.10;;;;;;;2.75;92.13;100053.40;104336;1279;101581;-76
2023/02/19 04:53:38;;;;;;;17.40;6.00;;;;;;;2.73;92.20;100046.96;104444;1279;99122;-76
2023/02/19 04:56:23;;;;;;;13.90;5.40;;;;;;;2.72;92.35;100048.12;104222;1279;99671;-75
2023/02/19 04:59:08;;;;;;;9.70;4.90;;;;;;;2.73;92.24;100046.95;104336;1280;98492;-76
2023/02/19 05:01:53;;;;;;;9.60;5.70;;;;;;;2.72;92.27;100049.14;104494;1276;98440;-77
2023/02/19 05:04:38;;;;;;;11.70;4.90;;;;;;;2.70;92.21;100051.08;104397;1279;101399;-76
2023/02/19 05:07:22;;;;;;;9.80;5.40;;;;;;;2.71;92.47;100049.83;104266;1279;100181;-76
2023/02/19 05:10:07;;;;;;;15.00;5.80;;;;;;;2.72;92.59;100048.08;104240;1274;98615;-75
2023/02/19 05:12:53;;;;;;;10.70;5.00;;;;;;;2.73;92.35;100046.79;104293;1274;98808;-76
2023/02/19 05:15:38;;;;;;;13.10;5.10;;;;;;;2.73;92.41;100046.44;104359;1274;98018;-78
2023/02/19 05:18:23;;;;;;;10.00;4.70;;;;;;;2.72;92.52;100047.96;104347;1280;102710;-76
2023/02/19 05:21:09;;;;;;;15.40;5.30;;;;;;;2.72;92.48;100045.43;104380;1279;99247;-76
2023/02/19 05:23:54;;;;;;;9.10;4.80;;;;;;;2.74;92.50;100039.33;104318;1279;98068;-76
2023/02/19 05:26:38;;;;;;;9.80;4.90;;;;;;;2.74;92.57;100041.59;104061;1280;98583;-76
2023/02/19 05:29:23;;;;;;;13.50;4.80;;;;;;;2.73;92.58;100038.28;104314;1278;98430;-76
2023/02/19 05:32:07;;;;;;;11.30;4.70;;;;;;;2.74;92.68;100038.95;104343;1274;101614;-76
2023/02/19 05:34:52;;;;;;;10.80;5.10;;;;;;;2.73;92.53;100038.01;104333;1279;100608;-77
2023/02/19 05:37:37;;;;;;;12.50;5.60;;;;;;;2.71;92.64;100036.54;104294;1280;99059;-77
2023/02/19 05:40:21;;;;;;;12.70;5.10;;;;;;;2.73;92.73;100035.20;104277;1279;98078;-77
2023/02/19 05:43:07;;;;;;;9.60;5.50;;;;;;;2.74;92.86;100040.30;104310;1279;97994;-76
2023/02/19 05:45:52;;;;;;;9.00;4.70;;;;;;;2.76;92.76;100043.50;104294;1279;101376;-77
2023/02/19 05:48:36;;;;;;;14.20;5.70;;;;;;;2.73;92.63;100042.86;104304;1279;99205;-76
2023/02/19 05:51:23;;;;;;;13.10;5.40;;;;;;;2.71;92.63;100041.83;104356;1279;97899;-75
2023/02/19 05:54:09;;;;;;;14.00;5.10;;;;;;;2.71;92.73;100035.21;104301;1280;98208;-76
2023/02/19 05:56:54;;;;;;;18.00;6.10;;;;;;;2.69;92.67;100033.25;104415;1280;99736;-76
2023/02/19 05:59:39;;;;;;;12.60;5.30;;;;;;;2.68;92.79;100035.49;104053;1279;101376;-77
2023/02/19 06:02:23;;;;;;;11.40;5.90;;;;;;;2.67;92.88;100036.24;104354;1280;100148;-77
2023/02/19 06:05:08;;;;;;;14.30;5.90;;;;;;;2.68;92.82;100040.05;104300;1279;98574;-76
2023/02/19 06:07:53;;;;;;;18.50;7.70;;;;;;;2.68;92.80;100044.97;104108;1274;98622;-76
2023/02/19 06:10:40;;;;;;;11.10;6.20;;;;;;;2.66;92.80;100048.55;104341;1276;98135;-77
2023/02/19 06:13:24;;;;;;;12.10;5.70;;;;;;;2.64;92.87;100053.09;104353;1276;102413;-75
2023/02/19 06:16:09;;;;;;;15.00;6.50;;;;;;;2.63;93.03;100054.47;104297;1274;99185;-76
2023/02/19 06:18:54;;;;;;;11.90;6.70;;;;;;;2.62;93.10;100055.95;103963;1281;99263;-76
2023/02/19 06:21:38;;;;;;;15.60;7.00;;;;;;;2.62;93.16;100055.62;104344;1274;98117;-77
2023/02/19 06:24:23;;;;;;;13.80;7.40;;;;;;;2.62;93.08;100053.17;104349;1280;99355;-76
2023/02/19 06:27:08;;;;;;;14.40;6.60;;;;;;;2.61;93.19;100049.36;104329;1279;102737;-76
2023/02/19 06:29:53;;;;;;;12.80;6.30;;;;;;;2.61;93.34;100046.91;104201;1274;99164;-76
2023/02/19 06:32:38;;;;;;;23.40;8.30;;;;;;;2.63;93.44;100040.16;104174;1279;98014;-76
2023/02/19 06:35:22;;;;;;;11.50;5.70;;;;;;;2.67;93.44;100038.41;104242;1274;97988;-77
2023/02/19 06:38:07;;;;;;;12.50;6.30;;;;;;;2.67;93.57;100034.65;104239;1274;98891;-76
2023/02/19 06:40:52;;;;;;;14.80;6.20;;;;;;;2.68;93.55;100034.02;103972;1280;102721;-77
2023/02/19 06:43:37;;;;;;;13.60;6.30;;;;;;;2.69;93.56;100038.01;104128;1277;99221;-76
2023/02/19 06:46:22;;;;;;;13.40;6.60;;;;;;;2.69;93.48;100039.76;103978;1279;98954;-76
2023/02/19 06:49:06;;;;;;;18.60;5.90;;;;;;;2.69;93.71;100042.55;104273;1279;98516;-76
2023/02/19 06:51:51;;;;;;;13.10;6.10;;;;;;;2.70;93.54;100048.83;104191;1279;98522;-76
2023/02/19 06:54:35;;;;;;;15.50;5.80;;;;;;;2.69;93.50;100049.95;104234;1290;101478;-77
2023/02/19 06:57:20;;;;;;;17.70;6.40;;;;;;;2.70;93.57;100055.70;104323;1279;99204;-76
2023/02/19 07:00:05;;;;;;;12.80;5.90;;;;;;;2.70;93.62;100060.42;104220;1287;98020;-76
2023/02/19 07:02:55;;;;;;;19.00;7.60;;;;;;;2.72;93.68;100070.66;104278;1279;98010;-76
2023/02/19 07:05:40;;;;;;;20.10;9.90;;;;;;;2.75;93.83;100074.37;104074;1281;97899;-77
2023/02/19 07:08:24;;;;;;;16.80;8.20;;;;;;;2.79;93.76;100074.80;104276;1277;101425;-76
2023/02/19 07:11:09;;;;;;;12.90;7.10;;;;;;;2.82;93.74;100070.95;104345;1279;100452;-76
2023/02/19 07:13:55;;;;;;;13.70;5.40;;;;;;;2.83;93.71;100072.75;104255;1280;99072;-77
2023/02/19 07:16:40;;;;;;;11.20;6.70;;;;;;;2.83;93.43;100077.65;104278;1287;97916;-76
2023/02/19 07:19:24;;;;;;;14.30;6.30;;;;;;;2.84;93.66;100079.02;104118;1277;99712;-75
2023/02/19 07:22:09;;;;;;;12.20;5.90;;;;;;;2.85;93.64;100079.12;104357;1279;101493;-76
2023/02/19 07:24:54;;;;;;;12.60;6.20;;;;;;;2.85;93.67;100078.06;104277;1279;100560;-75
2023/02/19 07:27:39;;;;;;;12.90;5.90;;;;;;;2.86;93.67;100076.85;104295;1280;98593;-75
2023/02/19 07:30:23;;;;;;;12.80;6.10;;;;;;;2.88;93.71;100075.21;104293;1277;97932;-76
2023/02/19 07:33:09;;;;;;;12.50;6.00;;;;;;;2.91;93.88;100072.27;104327;1279;98459;-77
2023/02/19 07:35:55;;;;;;;12.40;6.10;;;;;;;2.94;93.92;100074.46;104516;1279;101495;-76
2023/02/19 07:38:39;;;;;;;11.70;6.90;;;;;;;2.98;94.08;100074.82;104246;1276;99895;-76
2023/02/19 07:41:26;;;;;;;14.10;8.00;;;;;;;3.00;93.89;100079.70;104424;1277;99092;-76
2023/02/19 07:44:15;;;;;;;15.10;6.50;;;;;;;3.03;93.68;100084.83;104202;1276;98115;-76
2023/02/19 07:47:00;;;;;;;20.00;9.70;;;;;;;3.05;93.67;100085.31;104286;1279;98533;-76
2023/02/19 07:49:45;;;;;;;20.10;9.70;;;;;;;3.08;93.84;100085.04;104380;1280;102845;-77
2023/02/19 07:52:29;;;;;;;17.80;9.80;;;;;;;3.11;93.87;100088.27;104305;1279;99103;-77
2023/02/19 07:55:14;;;;;;;20.20;9.40;;;;;;;3.14;93.86;100093.42;104404;1279;98456;-76
2023/02/19 07:58:00;;;;;;;17.50;6.90;;;;;;;3.16;93.64;100093.88;104382;1280;98062;-77
2023/02/19 08:00:44;;;;;;;19.10;8.30;;;;;;;3.20;93.75;100088.20;104488;1279;98112;-76
2023/02/19 08:03:29;;;;;;;19.30;7.10;;;;;;;3.22;93.68;100089.98;104512;1287;101370;-75
2023/02/19 08:06:14;;;;;;;16.50;6.30;;;;;;;3.25;93.60;100091.47;104416;1279;99174;-77
2023/02/19 08:08:59;;;;;;;20.60;8.90;;;;;;;3.26;93.42;100089.46;104383;1280;97892;-76
2023/02/19 08:14:47;;;;;;;21.90;8.70;;;;;;;3.28;93.45;100088.39;104324;1280;99301;-75
2023/02/19 08:17:32;;;;;;;18.20;8.00;;;;;;;3.32;93.44;100090.22;104340;1280;101536;-78
2023/02/19 08:20:17;;;;;;;19.70;7.20;;;;;;;3.39;93.41;100093.45;104119;1277;100412;-77
2023/02/19 08:23:02;;;;;;;24.40;8.00;;;;;;;3.44;93.37;100099.27;104359;1279;98528;-78
2023/02/19 08:25:48;;;;;;;16.30;7.30;;;;;;;3.47;93.05;100098.77;104412;1279;98124;-79
2023/02/19 08:28:33;;;;;;;26.10;11.40;;;;;;;3.52;93.30;100103.91;104376;1288;99697;-76
2023/02/19 08:31:18;;;;;;;20.20;7.70;;;;;;;3.57;93.50;100108.85;104306;1279;102661;-77
2023/02/19 08:34:03;;;;;;;14.50;7.10;;;;;;;3.62;93.37;100108.94;104344;1277;99143;-76
2023/02/19 08:36:48;;;;;;;15.90;7.50;;;;;;;3.65;93.07;100106.98;104299;1279;99020;-76
2023/02/19 08:39:33;;;;;;;23.70;11.70;;;;;;;3.68;93.12;100108.23;104281;1287;97957;-77
2023/02/19 08:42:18;;;;;;;13.70;7.60;;;;;;;3.73;93.07;100111.84;104282;1280;98012;-76
2023/02/19 08:45:04;;;;;;;10.70;5.20;;;;;;;3.79;93.06;100115.66;104278;1279;102687;-77
2023/02/19 08:47:49;;;;;;;15.60;7.50;;;;;;;3.84;92.90;100114.77;104234;1276;99062;-76
2023/02/19 08:50:34;;;;;;;15.70;6.20;;;;;;;3.88;93.06;100110.79;104317;1279;97985;-77
2023/02/19 08:53:19;;;;;;;23.10;13.00;;;;;;;3.91;92.84;100110.14;104207;1279;97899;-77
2023/02/19 08:56:09;;;;;;;13.00;7.20;;;;;;;3.93;92.54;100107.14;104358;1277;98842;-77
2023/02/19 08:58:54;;;;;;;16.50;6.30;;;;;;;3.92;92.38;100107.20;104587;1276;101568;-77
2023/02/19 09:01:39;;;;;;;13.10;5.80;;;;;;;3.94;92.29;100105.79;105141;1277;100598;-82
2023/02/19 09:04:24;;;;;;;13.80;8.80;;;;;;;3.96;92.11;100103.98;104760;1283;99003;-83
2023/02/19 09:07:11;;;;;;;12.50;6.10;;;;;;;3.96;91.60;100105.98;104780;1274;97942;-82
2023/02/19 09:09:56;;;;;;;11.00;5.70;;;;;;;3.95;91.35;100110.67;105004;1276;98008;-84
2023/02/19 09:12:41;;;;;;;13.00;5.10;;;;;;;3.93;91.18;100113.27;105212;1274;101444;-82
2023/02/19 09:15:29;;;;;;;14.60;7.40;;;;;;;3.93;90.95;100116.69;104955;1282;100397;-83
2023/02/19 09:18:14;;;;;;;15.80;5.70;;;;;;;3.96;91.06;100117.30;105304;1279;97835;-82
2023/02/19 09:21:01;;;;;;;13.60;5.50;;;;;;;3.99;90.96;100119.41;105372;1274;97950;-82
2023/02/19 09:23:45;;;;;;;13.70;5.70;;;;;;;4.02;90.50;100125.18;105187;1276;99242;-83
2023/02/19 09:26:30;;;;;;;16.30;6.20;;;;;;;4.04;90.35;100126.86;105407;1276;102252;-82
2023/02/19 09:29:14;;;;;;;24.40;14.70;;;;;;;4.04;90.01;100127.89;104928;1274;100708;-83
2023/02/19 09:32:00;;;;;;;17.50;9.30;;;;;;;4.09;90.30;100127.20;105010;1280;99945;-84
2023/02/19 09:34:45;;;;;;;12.70;5.90;;;;;;;4.15;90.02;100128.34;104722;1274;96663;-82
2023/02/19 09:37:30;;;;;;;14.50;6.60;;;;;;;4.19;89.85;100128.13;104992;1276;98436;-80
2023/02/19 09:40:20;;;;;;;10.10;5.90;;;;;;;4.25;89.89;100128.52;104536;1280;102009;-84
2023/02/19 09:43:10;;;;;;;21.70;6.60;;;;;;;4.28;89.27;100130.39;104708;1275;99120;-84
2023/02/19 09:46:17;;;;;;;14.10;5.90;;;;;;;4.24;88.94;100130.19;104750;1279;98726;-81
2023/02/19 09:49:13;;;;;;;17.00;5.90;;;;;;;4.25;89.09;100133.16;104708;1277;98007;-85
2023/02/19 09:52:05;;;;;;;10.00;5.20;;;;;;;4.27;89.20;100132.95;104583;1277;97925;-81
2023/02/19 09:54:51;;;;;;;14.00;6.40;;;;;;;4.26;88.59;100129.72;104816;1279;101353;-85
2023/02/19 09:57:36;;;;;;;12.90;5.80;;;;;;;4.23;88.29;100130.90;104182;1277;99266;-87
2023/02/19 10:00:24;;;;;;;12.60;5.80;;;;;;;4.24;88.49;100133.45;104780;1279;98082;-84
2023/02/19 10:03:16;;;;;;;15.30;5.90;;;;;;;4.27;88.68;100135.96;104659;1282;98887;-82
2023/02/19 10:06:06;;;;;;;12.80;5.80;;;;;;;4.29;88.12;100134.52;105052;1279;97882;-82
2023/02/19 10:08:58;;;;;;;10.10;5.70;;;;;;;4.28;88.09;100135.80;105081;1274;102735;-84
2023/02/19 10:11:45;;;;;;;12.60;5.80;;;;;;;4.32;88.11;100136.12;104762;1274;100529;-82
2023/02/19 10:14:38;;;;;;;11.20;5.80;;;;;;;4.37;87.98;100131.35;105143;1276;108920;-87
2023/02/19 10:17:28;;;;;;;17.00;6.40;;;;;;;4.47;88.38;100137.20;104640;1276;97910;-82
2023/02/19 10:20:23;;;;;;;15.90;6.90;;;;;;;4.58;87.92;100137.40;104856;1275;97796;-81
2023/02/19 10:23:11;;;;;;;11.00;6.00;;;;;;;4.70;87.98;100134.60;104774;1276;102652;-82
2023/02/19 10:25:58;;;;;;;11.00;5.40;;;;;;;4.81;87.62;100129.76;104615;1287;99132;-82
2023/02/19 10:28:42;;;;;;;10.20;5.20;;;;;;;4.88;86.98;100128.62;104618;1279;98986;-82
2023/02/19 10:31:27;;;;;;;8.60;5.00;;;;;;;4.96;86.89;100130.43;104735;1282;98032;-82
2023/02/19 10:34:21;;;;;;;15.80;5.40;;;;;;;5.04;86.33;100138.92;105117;1277;97905;-81
2023/02/19 10:37:13;;;;;;;12.60;5.70;;;;;;;5.09;85.28;100146.83;105114;1279;101329;-82
2023/02/19 10:39:59;;;;;;;11.90;5.00;;;;;;;5.12;85.27;100145.66;104772;1274;101290;-85
2023/02/19 10:42:54;;;;;;;12.10;6.80;;;;;;;5.16;85.59;100148.63;105193;1277;98964;-91
2023/02/19 10:45:54;;;;;;;16.30;6.70;;;;;;;5.17;84.86;100156.77;105290;1276;98026;-87
2023/02/19 10:48:54;;;;;;;11.20;5.60;;;;;;;5.17;84.69;100156.99;104830;1277;98516;-83
2023/02/19 10:51:42;;;;;;;12.50;4.20;;;;;;;5.14;83.86;100162.04;105002;1276;101596;-85
2023/02/19 10:54:31;;;;;;;10.70;5.00;;;;;;;5.06;82.86;100160.28;104985;1282;100419;-80
2023/02/19 10:57:28;;;;;;;7.30;4.30;;;;;;;5.01;82.62;100162.27;104931;1276;97900;-80
2023/02/19 11:00:23;;;;;;;10.60;4.30;;;;;;;5.02;82.67;100161.56;105450;1275;97923;-90
2023/02/19 11:03:34;;;;;;;8.40;4.50;;;;;;;5.05;82.78;100163.76;104088;1280;98881;-77
2023/02/19 11:06:24;;;;;;;;;;;;;;;5.08;82.50;100166.79;104329;1288;103285;-78
2023/02/19 11:09:52;;;;;;;8.70;4.80;;;;;;;5.09;81.87;100166.20;104339;1279;100494;-78
2023/02/19 11:12:37;;;;;;;12.60;3.90;;;;;;;5.13;81.47;100163.75;104781;1276;99054;-88
2023/02/19 11:15:37;;;;;;;7.10;3.50;;;;;;;5.12;80.81;100161.73;105296;1280;98019;-86
2023/02/19 11:18:33;;;;;;;8.30;4.30;;;;;;;5.08;80.60;100169.15;105295;1279;97934;-87
2023/02/19 11:21:31;;;;;;;6.60;3.30;;;;;;;5.05;81.00;100164.26;104624;1276;111801;-88
2023/02/19 11:24:27;;;;;;;11.40;4.10;;;;;;;5.09;80.89;100167.91;104650;1282;99196;-76
2023/02/19 11:27:21;;;;;;;10.30;3.80;;;;;;;5.09;80.16;100175.73;105048;1279;99392;-82
2023/02/19 11:30:50;;;;;;;11.30;3.10;;;;;;;5.07;80.21;100175.88;105323;1275;97957;-86
2023/02/19 11:33:43;;;;;;;7.40;2.90;;;;;;;5.10;80.57;100176.48;105385;1275;97912;-78
2023/02/19 11:36:31;;;;;;;9.10;4.40;;;;;;;5.13;80.43;100178.16;104282;1274;103186;-79
2023/02/19 11:39:15;;;;;;;10.10;3.30;;;;;;;5.14;80.28;100182.97;104691;1276;100511;-78
2023/02/19 11:42:22;;;;;;;5.30;3.60;;;;;;;5.16;79.73;100185.95;104440;1277;98774;-76
2023/02/19 11:45:26;;;;;;;13.30;4.20;;;;;;;5.17;79.49;100188.15;104396;1275;98334;-80
2023/02/19 11:48:26;;;;;;;11.40;4.30;;;;;;;5.09;78.92;100186.14;104427;1277;99709;-77
2023/02/19 11:51:22;;;;;;;9.20;3.70;;;;;;;5.03;79.10;100182.15;104232;1276;102237;-78
2023/02/19 11:54:31;;;;;;;10.40;3.90;;;;;;;5.03;79.25;100190.50;104293;1279;99126;-77
2023/02/19 11:57:36;;;;;;;6.80;3.20;;;;;;;5.01;79.23;100190.53;104326;1280;99344;-79
2023/02/19 12:00:30;;;;;;;4.50;3.20;;;;;;;5.01;79.33;100194.15;104410;1279;97989;-77
2023/02/19 12:03:18;;;;;;;8.80;3.40;;;;;;;5.02;79.19;100201.38;104451;1277;97927;-79
2023/02/19 12:06:46;;;;;;;6.50;2.90;;;;;;;5.00;78.82;100201.81;104342;1279;101455;-78
2023/02/19 12:10:02;;;;;;;11.50;3.40;;;;;;;4.97;78.66;100202.83;104515;1277;99246;-78
2023/02/19 12:12:56;;;;;;;7.70;3.40;;;;;;;4.94;78.46;100204.04;104313;1276;98795;-78
2023/02/19 12:16:04;;;;;;;7.10;3.10;;;;;;;4.90;78.62;100208.14;104358;1278;97991;-78
2023/02/19 12:19:00;;;;;;;5.70;2.90;;;;;;;4.88;78.73;100213.30;104384;1279;98445;-78
2023/02/19 12:22:05;;;;;;;11.70;3.80;;;;;;;4.86;78.69;100213.73;104453;1276;101426;-78
2023/02/19 12:24:56;;;;;;;7.90;2.70;;;;;;;4.83;78.25;100215.01;104378;1278;100506;-78
2023/02/19 12:28:03;;;;;;;5.80;2.10;;;;;;;4.82;78.37;100219.31;104142;1276;98389;-78
2023/02/19 12:31:26;;;;;;;6.30;3.00;;;;;;;4.83;78.50;100224.15;104393;1277;98049;-78
2023/02/19 12:37:20;;;;;;;11.00;3.00;;;;;;;4.91;78.22;100229.44;105385;1273;101155;-80
2023/02/19 12:40:26;;;;;;;6.40;2.60;;;;;;;4.99;78.23;100239.45;104398;1273;100419;-75
2023/02/19 12:43:18;;;;;;;4.40;2.40;;;;;;;5.04;77.83;100239.28;104756;1273;97984;-77
2023/02/19 12:46:20;;;;;;;6.50;2.20;;;;;;;5.09;77.51;100242.28;104780;1277;97977;-86
2023/02/19 12:49:14;;;;;;;7.50;2.70;;;;;;;5.13;77.51;100242.39;105054;1274;97818;-85
2023/02/19 12:52:17;;;;;;;6.40;2.40;;;;;;;5.18;77.53;100245.34;105237;1273;103631;-86
2023/02/19 12:55:21;;;;;;;8.50;3.20;;;;;;;5.23;77.29;100246.38;105567;1273;101326;-88
2023/02/19 12:58:15;;;;;;;8.60;3.30;;;;;;;5.26;76.71;100251.77;105482;1274;99288;-91
2023/02/19 13:04:52;;;;;;;8.80;2.60;;;;;;;5.34;76.53;100250.40;105498;1278;98005;-89
2023/02/19 13:07:45;;;;;;;10.40;3.40;;;;;;;5.39;76.35;100247.55;105863;1273;103587;-88
2023/02/19 13:10:49;;;;;;;4.70;1.90;;;;;;;5.49;76.24;100245.09;105180;1274;99102;-85
2023/02/19 13:13:46;;;;;;;7.20;2.70;;;;;;;5.56;75.56;100246.06;105111;1276;98908;-85
2023/02/19 13:16:37;;;;;;;9.50;3.60;;;;;;;5.61;75.34;100248.41;104999;1274;97979;-84
2023/02/19 13:19:22;;;;;;;8.20;4.20;;;;;;;5.64;75.34;100248.38;104958;1273;98071;-84
2023/02/19 13:25:57;;;;;;;7.80;3.00;;;;;;;5.74;74.49;100247.46;105218;1273;100415;-87
2023/02/19 13:29:15;;;;;;;12.40;5.00;;;;;;;5.77;74.28;100249.25;105666;1276;99205;-89
2023/02/19 13:32:39;;;;;;;10.50;4.10;;;;;;;5.81;73.59;100254.02;105147;1276;98557;-83
2023/02/19 13:36:08;;;;;;;7.60;3.70;;;;;;;5.85;73.33;100260.66;105418;1274;98016;-89